sensor_id;sensor_type;location;lat;lon;timestamp;P1;durP1;ratioP1;P2;durP2;ratioP2
22826;SDS011;11580;52.562;13.418;2022-09-09T00:01:47;5.83;;;5.43;;
22826;SDS011;11580;52.562;13.418;2022-09-09T00:04:26;6.10;;;5.50;;
22826;SDS011;11580;52.562;13.418;2022-09-09T00:06:58;6.13;;;5.73;;
22826;SDS011;11580;52.562;13.418;2022-09-09T00:09:33;6.50;;;6.10;;
22826;SDS011;11580;52.562;13.418;2022-09-09T00:12:11;7.47;;;5.40;;
22826;SDS011;11580;52.562;13.418;2022-09-09T00:14:47;6.30;;;5.80;;
22826;SDS011;11580;52.562;13.418;2022-09-09T00:17:24;6.30;;;5.90;;
22826;SDS011;11580;52.562;13.418;2022-09-09T00:20:03;7.10;;;6.60;;
22826;SDS011;11580;52.562;13.418;2022-09-09T00:22:40;5.60;;;5.20;;
22826;SDS011;11580;52.562;13.418;2022-09-09T00:25:21;6.37;;;5.87;;
22826;SDS011;11580;52.562;13.418;2022-09-09T00:27:59;6.27;;;5.87;;
22826;SDS011;11580;52.562;13.418;2022-09-09T00:30:29;6.40;;;6.00;;
22826;SDS011;11580;52.562;13.418;2022-09-09T00:33:03;6.70;;;6.20;;
22826;SDS011;11580;52.562;13.418;2022-09-09T00:35:41;6.23;;;5.73;;
22826;SDS011;11580;52.562;13.418;2022-09-09T00:38:13;4.80;;;4.50;;
22826;SDS011;11580;52.562;13.418;2022-09-09T00:40:48;6.00;;;5.40;;
22826;SDS011;11580;52.562;13.418;2022-09-09T00:43:24;6.23;;;5.73;;
22826;SDS011;11580;52.562;13.418;2022-09-09T00:46:04;6.90;;;6.43;;
22826;SDS011;11580;52.562;13.418;2022-09-09T00:49:04;5.83;;;5.43;;
22826;SDS011;11580;52.562;13.418;2022-09-09T00:51:43;5.60;;;5.20;;
22826;SDS011;11580;52.562;13.418;2022-09-09T00:54:36;5.63;;;5.13;;
22826;SDS011;11580;52.562;13.418;2022-09-09T00:57:18;6.47;;;5.97;;
22826;SDS011;11580;52.562;13.418;2022-09-09T00:59:58;6.40;;;5.90;;
22826;SDS011;11580;52.562;13.418;2022-09-09T01:02:59;6.53;;;5.93;;
22826;SDS011;11580;52.562;13.418;2022-09-09T01:05:47;5.60;;;5.20;;
22826;SDS011;11580;52.562;13.418;2022-09-09T01:08:29;6.30;;;5.80;;
22826;SDS011;11580;52.562;13.418;2022-09-09T01:11:16;5.07;;;4.77;;
22826;SDS011;11580;52.562;13.418;2022-09-09T01:13:52;6.10;;;5.70;;
22826;SDS011;11580;52.562;13.418;2022-09-09T01:16:31;6.07;;;5.67;;
22826;SDS011;11580;52.562;13.418;2022-09-09T01:18:59;6.27;;;5.73;;
22826;SDS011;11580;52.562;13.418;2022-09-09T01:21:33;5.70;;;5.30;;
22826;SDS011;11580;52.562;13.418;2022-09-09T01:24:16;6.70;;;6.00;;
22826;SDS011;11580;52.562;13.418;2022-09-09T01:27:12;6.07;;;5.67;;
22826;SDS011;11580;52.562;13.418;2022-09-09T01:29:41;6.00;;;5.60;;
22826;SDS011;11580;52.562;13.418;2022-09-09T01:35:08;6.07;;;5.67;;
22826;SDS011;11580;52.562;13.418;2022-09-09T01:37:47;7.07;;;6.27;;
22826;SDS011;11580;52.562;13.418;2022-09-09T01:40:14;6.23;;;5.83;;
22826;SDS011;11580;52.562;13.418;2022-09-09T01:42:45;7.13;;;6.63;;
22826;SDS011;11580;52.562;13.418;2022-09-09T01:45:12;6.70;;;6.20;;
22826;SDS011;11580;52.562;13.418;2022-09-09T01:47:39;7.47;;;6.87;;
22826;SDS011;11580;52.562;13.418;2022-09-09T01:50:28;7.03;;;6.53;;
22826;SDS011;11580;52.562;13.418;2022-09-09T01:52:58;7.80;;;7.00;;
22826;SDS011;11580;52.562;13.418;2022-09-09T01:55:30;7.33;;;6.73;;
22826;SDS011;11580;52.562;13.418;2022-09-09T01:58:08;7.30;;;6.70;;
22826;SDS011;11580;52.562;13.418;2022-09-09T02:00:55;7.67;;;7.07;;
22826;SDS011;11580;52.562;13.418;2022-09-09T02:03:40;7.03;;;6.53;;
22826;SDS011;11580;52.562;13.418;2022-09-09T02:06:21;7.17;;;6.67;;
22826;SDS011;11580;52.562;13.418;2022-09-09T02:09:04;7.37;;;6.77;;
22826;SDS011;11580;52.562;13.418;2022-09-09T02:11:34;7.37;;;6.77;;
22826;SDS011;11580;52.562;13.418;2022-09-09T02:14:21;6.70;;;6.30;;
22826;SDS011;11580;52.562;13.418;2022-09-09T02:16:54;7.13;;;6.63;;
22826;SDS011;11580;52.562;13.418;2022-09-09T02:19:41;6.23;;;5.73;;
22826;SDS011;11580;52.562;13.418;2022-09-09T02:22:22;7.20;;;6.70;;
22826;SDS011;11580;52.562;13.418;2022-09-09T02:24:54;7.50;;;6.90;;
22826;SDS011;11580;52.562;13.418;2022-09-09T02:27:28;7.30;;;6.80;;
22826;SDS011;11580;52.562;13.418;2022-09-09T02:29:57;6.53;;;6.03;;
22826;SDS011;11580;52.562;13.418;2022-09-09T02:32:35;6.97;;;6.47;;
22826;SDS011;11580;52.562;13.418;2022-09-09T02:35:09;7.17;;;6.67;;
22826;SDS011;11580;52.562;13.418;2022-09-09T02:37:42;6.87;;;6.37;;
22826;SDS011;11580;52.562;13.418;2022-09-09T02:40:13;7.10;;;6.60;;
22826;SDS011;11580;52.562;13.418;2022-09-09T02:42:46;6.27;;;5.77;;
22826;SDS011;11580;52.562;13.418;2022-09-09T02:45:19;6.40;;;5.90;;
22826;SDS011;11580;52.562;13.418;2022-09-09T02:47:52;6.50;;;5.80;;
22826;SDS011;11580;52.562;13.418;2022-09-09T02:50:37;6.80;;;6.20;;
22826;SDS011;11580;52.562;13.418;2022-09-09T02:53:14;6.00;;;5.47;;
22826;SDS011;11580;52.562;13.418;2022-09-09T02:55:47;6.37;;;5.93;;
22826;SDS011;11580;52.562;13.418;2022-09-09T02:58:21;6.40;;;5.90;;
22826;SDS011;11580;52.562;13.418;2022-09-09T03:00:58;6.10;;;5.60;;
22826;SDS011;11580;52.562;13.418;2022-09-09T03:03:29;6.40;;;5.90;;
22826;SDS011;11580;52.562;13.418;2022-09-09T03:05:58;6.77;;;6.20;;
22826;SDS011;11580;52.562;13.418;2022-09-09T03:08:26;5.70;;;5.30;;
22826;SDS011;11580;52.562;13.418;2022-09-09T03:10:57;6.97;;;6.47;;
22826;SDS011;11580;52.562;13.418;2022-09-09T03:13:29;6.20;;;5.73;;
22826;SDS011;11580;52.562;13.418;2022-09-09T03:15:56;6.27;;;5.77;;
22826;SDS011;11580;52.562;13.418;2022-09-09T03:18:26;6.50;;;6.00;;
22826;SDS011;11580;52.562;13.418;2022-09-09T03:20:54;6.60;;;6.10;;
22826;SDS011;11580;52.562;13.418;2022-09-09T03:23:23;6.67;;;6.23;;
22826;SDS011;11580;52.562;13.418;2022-09-09T03:25:50;6.73;;;6.03;;
22826;SDS011;11580;52.562;13.418;2022-09-09T03:28:26;6.70;;;6.20;;
22826;SDS011;11580;52.562;13.418;2022-09-09T03:31:02;6.97;;;6.47;;
22826;SDS011;11580;52.562;13.418;2022-09-09T03:33:37;6.07;;;5.57;;
22826;SDS011;11580;52.562;13.418;2022-09-09T03:36:07;6.37;;;5.97;;
22826;SDS011;11580;52.562;13.418;2022-09-09T03:38:35;6.20;;;5.70;;
22826;SDS011;11580;52.562;13.418;2022-09-09T03:41:03;6.00;;;5.60;;
22826;SDS011;11580;52.562;13.418;2022-09-09T03:43:33;6.97;;;6.40;;
22826;SDS011;11580;52.562;13.418;2022-09-09T03:46:04;6.37;;;5.77;;
22826;SDS011;11580;52.562;13.418;2022-09-09T03:48:32;6.13;;;5.73;;
22826;SDS011;11580;52.562;13.418;2022-09-09T03:50:59;6.80;;;6.30;;
22826;SDS011;11580;52.562;13.418;2022-09-09T03:53:30;6.23;;;5.83;;
22826;SDS011;11580;52.562;13.418;2022-09-09T03:55:58;5.90;;;5.50;;
22826;SDS011;11580;52.562;13.418;2022-09-09T03:58:27;6.30;;;5.80;;
22826;SDS011;11580;52.562;13.418;2022-09-09T04:01:02;6.03;;;5.60;;
22826;SDS011;11580;52.562;13.418;2022-09-09T04:03:35;6.43;;;5.87;;
22826;SDS011;11580;52.562;13.418;2022-09-09T04:06:02;5.90;;;5.50;;
22826;SDS011;11580;52.562;13.418;2022-09-09T04:08:32;6.40;;;6.00;;
22826;SDS011;11580;52.562;13.418;2022-09-09T04:11:01;5.67;;;5.20;;
22826;SDS011;11580;52.562;13.418;2022-09-09T04:13:30;6.13;;;5.63;;
22826;SDS011;11580;52.562;13.418;2022-09-09T04:16:01;6.03;;;5.63;;
22826;SDS011;11580;52.562;13.418;2022-09-09T04:18:31;7.07;;;6.47;;
22826;SDS011;11580;52.562;13.418;2022-09-09T04:21:00;5.87;;;5.37;;
22826;SDS011;11580;52.562;13.418;2022-09-09T04:23:29;5.90;;;5.50;;
22826;SDS011;11580;52.562;13.418;2022-09-09T04:25:58;6.10;;;5.70;;
22826;SDS011;11580;52.562;13.418;2022-09-09T04:28:27;5.63;;;5.17;;
22826;SDS011;11580;52.562;13.418;2022-09-09T04:31:03;5.80;;;5.30;;
22826;SDS011;11580;52.562;13.418;2022-09-09T04:33:34;6.10;;;5.60;;
22826;SDS011;11580;52.562;13.418;2022-09-09T04:36:02;5.53;;;5.13;;
22826;SDS011;11580;52.562;13.418;2022-09-09T04:38:29;5.50;;;5.00;;
22826;SDS011;11580;52.562;13.418;2022-09-09T04:40:56;4.97;;;4.57;;
22826;SDS011;11580;52.562;13.418;2022-09-09T04:43:24;5.00;;;4.70;;
22826;SDS011;11580;52.562;13.418;2022-09-09T04:45:56;5.63;;;5.23;;
22826;SDS011;11580;52.562;13.418;2022-09-09T04:48:24;5.40;;;4.73;;
22826;SDS011;11580;52.562;13.418;2022-09-09T04:50:58;6.00;;;5.57;;
22826;SDS011;11580;52.562;13.418;2022-09-09T04:53:29;5.67;;;5.17;;
22826;SDS011;11580;52.562;13.418;2022-09-09T04:56:03;4.63;;;4.33;;
22826;SDS011;11580;52.562;13.418;2022-09-09T04:58:37;6.00;;;5.50;;
22826;SDS011;11580;52.562;13.418;2022-09-09T05:01:07;5.77;;;5.27;;
22826;SDS011;11580;52.562;13.418;2022-09-09T05:03:38;5.33;;;4.93;;
22826;SDS011;11580;52.562;13.418;2022-09-09T05:06:11;5.20;;;4.80;;
22826;SDS011;11580;52.562;13.418;2022-09-09T05:08:41;5.17;;;4.80;;
22826;SDS011;11580;52.562;13.418;2022-09-09T05:11:13;6.23;;;5.73;;
22826;SDS011;11580;52.562;13.418;2022-09-09T05:13:43;5.60;;;5.20;;
22826;SDS011;11580;52.562;13.418;2022-09-09T05:16:10;5.50;;;5.00;;
22826;SDS011;11580;52.562;13.418;2022-09-09T05:18:39;6.17;;;4.97;;
22826;SDS011;11580;52.562;13.418;2022-09-09T05:21:08;5.43;;;5.03;;
22826;SDS011;11580;52.562;13.418;2022-09-09T05:23:38;4.90;;;4.50;;
22826;SDS011;11580;52.562;13.418;2022-09-09T05:26:06;4.80;;;4.50;;
22826;SDS011;11580;52.562;13.418;2022-09-09T05:28:38;5.30;;;4.90;;
22826;SDS011;11580;52.562;13.418;2022-09-09T05:31:07;6.20;;;5.60;;
22826;SDS011;11580;52.562;13.418;2022-09-09T05:33:38;5.30;;;4.90;;
22826;SDS011;11580;52.562;13.418;2022-09-09T05:36:08;5.00;;;4.60;;
22826;SDS011;11580;52.562;13.418;2022-09-09T05:38:40;5.10;;;4.70;;
22826;SDS011;11580;52.562;13.418;2022-09-09T05:41:09;5.53;;;5.03;;
22826;SDS011;11580;52.562;13.418;2022-09-09T05:43:41;5.03;;;4.67;;
22826;SDS011;11580;52.562;13.418;2022-09-09T05:46:11;5.27;;;4.87;;
22826;SDS011;11580;52.562;13.418;2022-09-09T05:48:41;4.40;;;4.10;;
22826;SDS011;11580;52.562;13.418;2022-09-09T05:51:13;5.00;;;4.60;;
22826;SDS011;11580;52.562;13.418;2022-09-09T05:53:43;4.77;;;4.37;;
22826;SDS011;11580;52.562;13.418;2022-09-09T05:56:13;5.20;;;4.90;;
22826;SDS011;11580;52.562;13.418;2022-09-09T05:58:44;5.40;;;5.00;;
22826;SDS011;11580;52.562;13.418;2022-09-09T06:01:15;4.90;;;4.50;;
22826;SDS011;11580;52.562;13.418;2022-09-09T06:03:45;5.07;;;4.70;;
22826;SDS011;11580;52.562;13.418;2022-09-09T06:06:16;4.60;;;4.30;;
22826;SDS011;11580;52.562;13.418;2022-09-09T06:08:47;5.07;;;4.67;;
22826;SDS011;11580;52.562;13.418;2022-09-09T06:11:19;4.97;;;4.47;;
22826;SDS011;11580;52.562;13.418;2022-09-09T06:13:48;4.90;;;4.50;;
22826;SDS011;11580;52.562;13.418;2022-09-09T06:16:19;4.60;;;4.20;;
22826;SDS011;11580;52.562;13.418;2022-09-09T06:18:49;6.57;;;4.63;;
22826;SDS011;11580;52.562;13.418;2022-09-09T06:21:20;4.63;;;4.33;;
22826;SDS011;11580;52.562;13.418;2022-09-09T06:23:51;5.20;;;4.80;;
22826;SDS011;11580;52.562;13.418;2022-09-09T06:26:20;4.73;;;4.37;;
22826;SDS011;11580;52.562;13.418;2022-09-09T06:28:51;4.80;;;4.40;;
22826;SDS011;11580;52.562;13.418;2022-09-09T06:31:20;5.23;;;4.87;;
22826;SDS011;11580;52.562;13.418;2022-09-09T06:33:50;4.20;;;3.80;;
22826;SDS011;11580;52.562;13.418;2022-09-09T06:36:24;6.40;;;4.50;;
22826;SDS011;11580;52.562;13.418;2022-09-09T06:38:53;4.67;;;4.27;;
22826;SDS011;11580;52.562;13.418;2022-09-09T06:41:23;4.70;;;4.30;;
22826;SDS011;11580;52.562;13.418;2022-09-09T06:43:55;5.73;;;4.10;;
22826;SDS011;11580;52.562;13.418;2022-09-09T06:46:31;4.40;;;4.00;;
22826;SDS011;11580;52.562;13.418;2022-09-09T06:48:59;6.17;;;4.33;;
22826;SDS011;11580;52.562;13.418;2022-09-09T06:51:29;4.57;;;4.10;;
22826;SDS011;11580;52.562;13.418;2022-09-09T06:54:02;4.30;;;4.00;;
22826;SDS011;11580;52.562;13.418;2022-09-09T06:56:32;4.00;;;3.70;;
22826;SDS011;11580;52.562;13.418;2022-09-09T06:59:07;3.60;;;3.40;;
22826;SDS011;11580;52.562;13.418;2022-09-09T07:01:36;4.80;;;4.10;;
22826;SDS011;11580;52.562;13.418;2022-09-09T07:04:09;4.20;;;3.80;;
22826;SDS011;11580;52.562;13.418;2022-09-09T07:06:42;4.67;;;3.60;;
22826;SDS011;11580;52.562;13.418;2022-09-09T07:09:22;3.80;;;3.47;;
22826;SDS011;11580;52.562;13.418;2022-09-09T07:11:51;13.83;;;4.40;;
22826;SDS011;11580;52.562;13.418;2022-09-09T07:14:20;3.60;;;3.30;;
22826;SDS011;11580;52.562;13.418;2022-09-09T07:16:53;3.97;;;3.17;;
22826;SDS011;11580;52.562;13.418;2022-09-09T07:19:20;3.63;;;3.13;;
22826;SDS011;11580;52.562;13.418;2022-09-09T07:21:52;3.33;;;2.97;;
22826;SDS011;11580;52.562;13.418;2022-09-09T07:24:21;3.43;;;2.90;;
22826;SDS011;11580;52.562;13.418;2022-09-09T07:26:49;3.33;;;2.90;;
22826;SDS011;11580;52.562;13.418;2022-09-09T07:29:17;3.13;;;2.93;;
22826;SDS011;11580;52.562;13.418;2022-09-09T07:31:44;2.87;;;2.67;;
22826;SDS011;11580;52.562;13.418;2022-09-09T07:34:16;3.37;;;3.17;;
22826;SDS011;11580;52.562;13.418;2022-09-09T07:36:44;3.07;;;2.80;;
22826;SDS011;11580;52.562;13.418;2022-09-09T07:39:14;3.07;;;2.87;;
22826;SDS011;11580;52.562;13.418;2022-09-09T07:41:48;3.10;;;2.80;;
22826;SDS011;11580;52.562;13.418;2022-09-09T07:44:19;3.10;;;2.90;;
22826;SDS011;11580;52.562;13.418;2022-09-09T07:46:57;3.77;;;2.80;;
22826;SDS011;11580;52.562;13.418;2022-09-09T07:49:30;4.17;;;2.77;;
22826;SDS011;11580;52.562;13.418;2022-09-09T07:51:58;3.63;;;2.80;;
22826;SDS011;11580;52.562;13.418;2022-09-09T07:54:27;2.77;;;2.67;;
22826;SDS011;11580;52.562;13.418;2022-09-09T07:56:54;2.93;;;2.73;;
22826;SDS011;11580;52.562;13.418;2022-09-09T07:59:26;3.00;;;2.80;;
22826;SDS011;11580;52.562;13.418;2022-09-09T08:01:55;4.00;;;2.50;;
22826;SDS011;11580;52.562;13.418;2022-09-09T08:04:26;3.07;;;2.80;;
22826;SDS011;11580;52.562;13.418;2022-09-09T08:06:55;3.20;;;2.60;;
22826;SDS011;11580;52.562;13.418;2022-09-09T08:09:27;3.00;;;2.80;;
22826;SDS011;11580;52.562;13.418;2022-09-09T08:12:03;2.83;;;2.57;;
22826;SDS011;11580;52.562;13.418;2022-09-09T08:14:33;3.73;;;2.23;;
22826;SDS011;11580;52.562;13.418;2022-09-09T08:17:00;2.37;;;2.27;;
22826;SDS011;11580;52.562;13.418;2022-09-09T08:19:30;4.47;;;2.20;;
22826;SDS011;11580;52.562;13.418;2022-09-09T08:21:59;2.30;;;2.00;;
22826;SDS011;11580;52.562;13.418;2022-09-09T08:24:31;2.30;;;2.10;;
22826;SDS011;11580;52.562;13.418;2022-09-09T08:26:58;2.70;;;2.50;;
22826;SDS011;11580;52.562;13.418;2022-09-09T08:29:27;2.30;;;2.20;;
22826;SDS011;11580;52.562;13.418;2022-09-09T08:31:55;4.00;;;2.20;;
22826;SDS011;11580;52.562;13.418;2022-09-09T08:34:26;2.87;;;2.10;;
22826;SDS011;11580;52.562;13.418;2022-09-09T08:36:56;2.93;;;2.30;;
22826;SDS011;11580;52.562;13.418;2022-09-09T08:39:31;1.90;;;1.80;;
22826;SDS011;11580;52.562;13.418;2022-09-09T08:42:11;2.73;;;2.13;;
22826;SDS011;11580;52.562;13.418;2022-09-09T08:45:10;2.27;;;2.07;;
22826;SDS011;11580;52.562;13.418;2022-09-09T08:48:02;2.20;;;1.77;;
22826;SDS011;11580;52.562;13.418;2022-09-09T08:50:47;3.80;;;2.67;;
22826;SDS011;11580;52.562;13.418;2022-09-09T08:53:23;2.93;;;2.30;;
22826;SDS011;11580;52.562;13.418;2022-09-09T08:55:57;3.40;;;2.70;;
22826;SDS011;11580;52.562;13.418;2022-09-09T08:58:42;2.20;;;2.10;;
22826;SDS011;11580;52.562;13.418;2022-09-09T09:01:21;2.20;;;2.00;;
22826;SDS011;11580;52.562;13.418;2022-09-09T09:04:26;2.33;;;2.13;;
22826;SDS011;11580;52.562;13.418;2022-09-09T09:07:15;2.47;;;1.87;;
22826;SDS011;11580;52.562;13.418;2022-09-09T09:10:00;4.97;;;2.13;;
22826;SDS011;11580;52.562;13.418;2022-09-09T09:12:40;3.00;;;2.07;;
22826;SDS011;11580;52.562;13.418;2022-09-09T09:15:14;2.00;;;1.90;;
22826;SDS011;11580;52.562;13.418;2022-09-09T09:17:50;2.10;;;1.70;;
22826;SDS011;11580;52.562;13.418;2022-09-09T09:20:21;2.03;;;1.93;;
22826;SDS011;11580;52.562;13.418;2022-09-09T09:22:59;5.17;;;2.50;;
22826;SDS011;11580;52.562;13.418;2022-09-09T09:25:31;3.33;;;2.20;;
22826;SDS011;11580;52.562;13.418;2022-09-09T09:28:10;2.50;;;2.03;;
22826;SDS011;11580;52.562;13.418;2022-09-09T09:30:46;1.97;;;1.83;;
22826;SDS011;11580;52.562;13.418;2022-09-09T09:33:22;2.33;;;2.13;;
22826;SDS011;11580;52.562;13.418;2022-09-09T09:35:56;2.67;;;2.13;;
22826;SDS011;11580;52.562;13.418;2022-09-09T09:38:26;1.70;;;1.60;;
22826;SDS011;11580;52.562;13.418;2022-09-09T09:40:58;2.40;;;2.20;;
22826;SDS011;11580;52.562;13.418;2022-09-09T09:43:29;2.30;;;1.60;;
22826;SDS011;11580;52.562;13.418;2022-09-09T09:46:03;2.23;;;1.70;;
22826;SDS011;11580;52.562;13.418;2022-09-09T09:48:31;2.27;;;1.77;;
22826;SDS011;11580;52.562;13.418;2022-09-09T09:53:35;2.83;;;1.73;;
22826;SDS011;11580;52.562;13.418;2022-09-09T09:56:06;2.40;;;1.57;;
22826;SDS011;11580;52.562;13.418;2022-09-09T09:58:48;2.13;;;1.63;;
22826;SDS011;11580;52.562;13.418;2022-09-09T10:01:24;3.53;;;2.00;;
22826;SDS011;11580;52.562;13.418;2022-09-09T10:03:57;1.97;;;1.80;;
22826;SDS011;11580;52.562;13.418;2022-09-09T10:06:30;2.60;;;2.00;;
22826;SDS011;11580;52.562;13.418;2022-09-09T10:08:59;2.20;;;1.77;;
22826;SDS011;11580;52.562;13.418;2022-09-09T10:11:31;4.57;;;2.00;;
22826;SDS011;11580;52.562;13.418;2022-09-09T10:14:17;1.60;;;1.50;;
22826;SDS011;11580;52.562;13.418;2022-09-09T10:16:52;2.27;;;1.80;;
22826;SDS011;11580;52.562;13.418;2022-09-09T10:19:39;2.30;;;1.80;;
22826;SDS011;11580;52.562;13.418;2022-09-09T10:22:27;2.50;;;2.30;;
22826;SDS011;11580;52.562;13.418;2022-09-09T10:28:23;2.73;;;1.50;;
22826;SDS011;11580;52.562;13.418;2022-09-09T10:31:11;3.10;;;1.93;;
22826;SDS011;11580;52.562;13.418;2022-09-09T10:33:49;2.10;;;2.00;;
22826;SDS011;11580;52.562;13.418;2022-09-09T10:36:23;2.10;;;2.00;;
22826;SDS011;11580;52.562;13.418;2022-09-09T10:38:52;1.87;;;1.77;;
22826;SDS011;11580;52.562;13.418;2022-09-09T10:41:33;3.00;;;2.57;;
22826;SDS011;11580;52.562;13.418;2022-09-09T10:44:24;1.83;;;1.57;;
22826;SDS011;11580;52.562;13.418;2022-09-09T10:47:15;2.30;;;1.80;;
22826;SDS011;11580;52.562;13.418;2022-09-09T10:50:13;2.33;;;2.10;;
22826;SDS011;11580;52.562;13.418;2022-09-09T10:53:02;1.60;;;1.50;;
22826;SDS011;11580;52.562;13.418;2022-09-09T10:55:39;1.90;;;1.67;;
22826;SDS011;11580;52.562;13.418;2022-09-09T10:58:12;2.67;;;1.90;;
22826;SDS011;11580;52.562;13.418;2022-09-09T11:00:47;2.40;;;1.70;;
22826;SDS011;11580;52.562;13.418;2022-09-09T11:03:21;2.10;;;1.70;;
22826;SDS011;11580;52.562;13.418;2022-09-09T11:05:55;2.77;;;1.90;;
22826;SDS011;11580;52.562;13.418;2022-09-09T11:08:28;3.50;;;2.90;;
22826;SDS011;11580;52.562;13.418;2022-09-09T11:10:58;2.20;;;1.63;;
22826;SDS011;11580;52.562;13.418;2022-09-09T11:13:32;2.83;;;1.70;;
22826;SDS011;11580;52.562;13.418;2022-09-09T11:16:19;1.70;;;1.60;;
22826;SDS011;11580;52.562;13.418;2022-09-09T11:18:57;1.57;;;1.47;;
22826;SDS011;11580;52.562;13.418;2022-09-09T11:21:31;2.47;;;1.30;;
22826;SDS011;11580;52.562;13.418;2022-09-09T11:24:10;2.40;;;1.30;;
22826;SDS011;11580;52.562;13.418;2022-09-09T11:26:53;2.10;;;1.70;;
22826;SDS011;11580;52.562;13.418;2022-09-09T11:29:41;2.40;;;1.30;;
22826;SDS011;11580;52.562;13.418;2022-09-09T11:32:37;3.07;;;1.60;;
22826;SDS011;11580;52.562;13.418;2022-09-09T11:35:50;1.70;;;1.37;;
22826;SDS011;11580;52.562;13.418;2022-09-09T11:38:35;2.50;;;1.70;;
22826;SDS011;11580;52.562;13.418;2022-09-09T11:41:12;2.77;;;2.00;;
22826;SDS011;11580;52.562;13.418;2022-09-09T11:43:42;2.60;;;2.00;;
22826;SDS011;11580;52.562;13.418;2022-09-09T11:46:12;1.70;;;1.60;;
22826;SDS011;11580;52.562;13.418;2022-09-09T11:48:42;2.20;;;1.70;;
22826;SDS011;11580;52.562;13.418;2022-09-09T11:51:25;1.80;;;1.50;;
22826;SDS011;11580;52.562;13.418;2022-09-09T11:53:55;1.80;;;1.70;;
22826;SDS011;11580;52.562;13.418;2022-09-09T11:56:27;1.70;;;1.60;;
22826;SDS011;11580;52.562;13.418;2022-09-09T11:58:57;2.70;;;1.47;;
22826;SDS011;11580;52.562;13.418;2022-09-09T12:01:38;2.57;;;2.43;;
22826;SDS011;11580;52.562;13.418;2022-09-09T12:04:16;1.67;;;1.20;;
22826;SDS011;11580;52.562;13.418;2022-09-09T12:07:04;1.40;;;0.97;;
22826;SDS011;11580;52.562;13.418;2022-09-09T12:09:56;1.50;;;1.27;;
22826;SDS011;11580;52.562;13.418;2022-09-09T12:12:30;1.60;;;1.37;;
22826;SDS011;11580;52.562;13.418;2022-09-09T12:15:20;1.53;;;1.40;;
22826;SDS011;11580;52.562;13.418;2022-09-09T12:17:54;1.53;;;1.20;;
22826;SDS011;11580;52.562;13.418;2022-09-09T12:20:26;2.07;;;1.43;;
22826;SDS011;11580;52.562;13.418;2022-09-09T12:23:17;1.13;;;1.03;;
22826;SDS011;11580;52.562;13.418;2022-09-09T12:28:53;1.47;;;1.30;;
22826;SDS011;11580;52.562;13.418;2022-09-09T12:31:34;1.40;;;1.17;;
22826;SDS011;11580;52.562;13.418;2022-09-09T12:34:10;1.77;;;1.20;;
22826;SDS011;11580;52.562;13.418;2022-09-09T12:39:45;1.57;;;1.47;;
22826;SDS011;11580;52.562;13.418;2022-09-09T12:42:19;1.37;;;1.27;;
22826;SDS011;11580;52.562;13.418;2022-09-09T12:44:51;1.30;;;1.20;;
22826;SDS011;11580;52.562;13.418;2022-09-09T12:47:22;1.50;;;1.20;;
22826;SDS011;11580;52.562;13.418;2022-09-09T12:50:02;1.67;;;1.23;;
22826;SDS011;11580;52.562;13.418;2022-09-09T12:52:30;2.50;;;1.60;;
22826;SDS011;11580;52.562;13.418;2022-09-09T12:55:04;1.63;;;1.20;;
22826;SDS011;11580;52.562;13.418;2022-09-09T12:57:34;2.53;;;1.30;;
22826;SDS011;11580;52.562;13.418;2022-09-09T13:00:07;1.20;;;1.10;;
22826;SDS011;11580;52.562;13.418;2022-09-09T13:02:47;2.10;;;1.40;;
22826;SDS011;11580;52.562;13.418;2022-09-09T13:05:18;2.50;;;1.03;;
22826;SDS011;11580;52.562;13.418;2022-09-09T13:07:49;2.37;;;1.37;;
22826;SDS011;11580;52.562;13.418;2022-09-09T13:10:24;1.23;;;1.10;;
22826;SDS011;11580;52.562;13.418;2022-09-09T13:12:55;1.47;;;1.30;;
22826;SDS011;11580;52.562;13.418;2022-09-09T13:15:23;1.70;;;1.50;;
22826;SDS011;11580;52.562;13.418;2022-09-09T13:17:56;1.33;;;1.20;;
22826;SDS011;11580;52.562;13.418;2022-09-09T13:20:27;1.30;;;1.20;;
22826;SDS011;11580;52.562;13.418;2022-09-09T13:22:56;2.67;;;1.27;;
22826;SDS011;11580;52.562;13.418;2022-09-09T13:25:25;1.70;;;1.33;;
22826;SDS011;11580;52.562;13.418;2022-09-09T13:27:56;1.00;;;1.00;;
22826;SDS011;11580;52.562;13.418;2022-09-09T13:30:27;1.30;;;1.20;;
22826;SDS011;11580;52.562;13.418;2022-09-09T13:33:04;1.60;;;1.20;;
22826;SDS011;11580;52.562;13.418;2022-09-09T13:35:49;1.83;;;1.10;;
22826;SDS011;11580;52.562;13.418;2022-09-09T13:38:21;2.27;;;1.67;;
22826;SDS011;11580;52.562;13.418;2022-09-09T13:40:55;1.63;;;1.20;;
22826;SDS011;11580;52.562;13.418;2022-09-09T13:43:27;2.97;;;1.20;;
22826;SDS011;11580;52.562;13.418;2022-09-09T13:45:58;2.80;;;1.50;;
22826;SDS011;11580;52.562;13.418;2022-09-09T13:48:27;2.20;;;1.40;;
22826;SDS011;11580;52.562;13.418;2022-09-09T13:50:55;1.20;;;1.10;;
22826;SDS011;11580;52.562;13.418;2022-09-09T13:53:25;1.43;;;1.07;;
22826;SDS011;11580;52.562;13.418;2022-09-09T13:55:54;3.20;;;0.93;;
22826;SDS011;11580;52.562;13.418;2022-09-09T13:58:22;2.20;;;1.20;;
22826;SDS011;11580;52.562;13.418;2022-09-09T14:00:50;1.20;;;1.10;;
22826;SDS011;11580;52.562;13.418;2022-09-09T14:03:19;1.20;;;1.10;;
22826;SDS011;11580;52.562;13.418;2022-09-09T14:05:46;2.63;;;1.20;;
22826;SDS011;11580;52.562;13.418;2022-09-09T14:08:24;1.80;;;1.13;;
22826;SDS011;11580;52.562;13.418;2022-09-09T14:11:03;2.20;;;1.03;;
22826;SDS011;11580;52.562;13.418;2022-09-09T14:13:30;1.97;;;1.23;;
22826;SDS011;11580;52.562;13.418;2022-09-09T14:15:57;1.70;;;1.30;;
22826;SDS011;11580;52.562;13.418;2022-09-09T14:18:25;1.63;;;0.97;;
22826;SDS011;11580;52.562;13.418;2022-09-09T14:20:52;1.80;;;1.10;;
22826;SDS011;11580;52.562;13.418;2022-09-09T14:23:19;1.10;;;1.00;;
22826;SDS011;11580;52.562;13.418;2022-09-09T14:25:47;1.93;;;1.30;;
22826;SDS011;11580;52.562;13.418;2022-09-09T14:28:15;2.90;;;1.10;;
22826;SDS011;11580;52.562;13.418;2022-09-09T14:30:43;1.50;;;1.17;;
22826;SDS011;11580;52.562;13.418;2022-09-09T14:33:12;1.90;;;1.20;;
22826;SDS011;11580;52.562;13.418;2022-09-09T14:35:42;1.30;;;1.20;;
22826;SDS011;11580;52.562;13.418;2022-09-09T14:38:09;2.07;;;1.20;;
22826;SDS011;11580;52.562;13.418;2022-09-09T14:40:37;1.90;;;1.33;;
22826;SDS011;11580;52.562;13.418;2022-09-09T14:43:05;1.80;;;1.10;;
22826;SDS011;11580;52.562;13.418;2022-09-09T14:45:35;2.97;;;1.63;;
22826;SDS011;11580;52.562;13.418;2022-09-09T14:48:03;2.30;;;1.17;;
22826;SDS011;11580;52.562;13.418;2022-09-09T14:50:30;1.97;;;1.20;;
22826;SDS011;11580;52.562;13.418;2022-09-09T14:52:58;2.23;;;1.97;;
22826;SDS011;11580;52.562;13.418;2022-09-09T14:55:25;1.40;;;1.30;;
22826;SDS011;11580;52.562;13.418;2022-09-09T14:57:53;3.23;;;1.43;;
22826;SDS011;11580;52.562;13.418;2022-09-09T15:00:21;1.30;;;1.10;;
22826;SDS011;11580;52.562;13.418;2022-09-09T15:02:49;1.90;;;1.30;;
22826;SDS011;11580;52.562;13.418;2022-09-09T15:05:19;1.30;;;1.20;;
22826;SDS011;11580;52.562;13.418;2022-09-09T15:07:46;1.20;;;1.10;;
22826;SDS011;11580;52.562;13.418;2022-09-09T15:10:14;1.47;;;1.20;;
22826;SDS011;11580;52.562;13.418;2022-09-09T15:12:43;1.23;;;1.13;;
22826;SDS011;11580;52.562;13.418;2022-09-09T15:15:10;1.70;;;1.40;;
22826;SDS011;11580;52.562;13.418;2022-09-09T15:17:37;1.50;;;1.40;;
22826;SDS011;11580;52.562;13.418;2022-09-09T15:20:07;1.60;;;1.50;;
22826;SDS011;11580;52.562;13.418;2022-09-09T15:22:35;2.10;;;1.63;;
22826;SDS011;11580;52.562;13.418;2022-09-09T15:25:03;2.03;;;1.50;;
22826;SDS011;11580;52.562;13.418;2022-09-09T15:27:33;2.67;;;1.33;;